Aviation Digital Data Service (ADDS)

Output produced by METARs form (1749 UTC 24 March 2017)
found at http://www.aviationweather.gov/adds/metars/
 
METAR text: KAMW 241653Z AUTO 02010KT 6SM -RA BR FEW041 BKN095 BKN120 08/07 A2989 RMK AO2 SLP121 P0001 T00780072
Conditions at: KAMW (AMES , IA, US) observed 1653 UTC 24 March 2017
Temperature: 7.8°C (46°F)
Dewpoint: 7.2°C (45°F) [RH = 96%]
Pressure (altimeter): 29.89 inches Hg (1012.3 mb)
[Sea-level pressure: 1012.1 mb]
Winds: from the NNE (20 degrees) at 12 MPH (10 knots; 5.2 m/s)
Visibility: 6 miles (10 km)
Ceiling: 9500 feet AGL
Clouds: few clouds at 4100 feet AGL
broken clouds at 9500 feet AGL
broken clouds at 12000 feet AGL
Weather: -RA BR  (light rain, mist)